createdAt,value
2023-05-25T00:02:10.699Z,17.15
2023-05-25T00:04:38.657Z,17.17
2023-05-25T00:07:06.386Z,17.08
2023-05-25T00:09:34.936Z,17.11
2023-05-25T00:12:03.041Z,17.02
2023-05-25T00:14:31.314Z,16.87
2023-05-25T00:16:58.997Z,16.32
2023-05-25T00:19:26.428Z,16.22
2023-05-25T00:21:54.910Z,16.18
2023-05-25T00:24:22.357Z,16.13
2023-05-25T00:26:49.939Z,16.16
2023-05-25T00:29:17.694Z,16.12
2023-05-25T00:31:45.616Z,16.11
2023-05-25T00:34:13.217Z,16.12
2023-05-25T00:36:40.676Z,16.12
2023-05-25T00:39:08.271Z,16.09
2023-05-25T00:41:41.585Z,15.99
2023-05-25T00:44:09.090Z,15.98
2023-05-25T00:46:38.348Z,16.01
2023-05-25T00:49:05.832Z,15.95
2023-05-25T00:51:33.996Z,15.82
2023-05-25T00:54:01.503Z,15.75
2023-05-25T00:56:31.210Z,15.64
2023-05-25T00:59:01.423Z,15.53
2023-05-25T01:01:29.285Z,15.46
2023-05-25T01:03:58.020Z,15.30
2023-05-25T01:06:27.264Z,15.41
2023-05-25T01:09:00.441Z,15.41
2023-05-25T01:11:29.016Z,15.28
2023-05-25T01:13:56.577Z,15.30
2023-05-25T01:16:26.197Z,15.03
2023-05-25T01:18:54.457Z,15.35
2023-05-25T01:21:27.118Z,15.20
2023-05-25T01:24:09.410Z,15.23
2023-05-25T01:26:40.205Z,15.04
2023-05-25T01:29:07.834Z,15.42
2023-05-25T01:31:36.387Z,15.41
2023-05-25T01:34:06.023Z,15.53
2023-05-25T01:36:33.695Z,15.58
2023-05-25T01:39:01.165Z,15.52
2023-05-25T01:41:28.680Z,15.51
2023-05-25T01:43:56.265Z,15.43
2023-05-25T01:46:33.206Z,15.39
2023-05-25T01:49:37.967Z,15.39
2023-05-25T01:52:34.818Z,15.25
2023-05-25T01:55:13.194Z,15.22
2023-05-25T01:57:42.740Z,15.08
2023-05-25T02:00:11.199Z,15.00
2023-05-25T02:02:43.115Z,14.97
2023-05-25T02:05:11.768Z,14.98
2023-05-25T02:07:39.411Z,14.96
2023-05-25T02:10:07.629Z,14.90
2023-05-25T02:12:35.252Z,14.79
2023-05-25T02:15:04.549Z,14.69
2023-05-25T02:17:32.339Z,14.67
2023-05-25T02:20:00.192Z,14.65
2023-05-25T02:22:27.812Z,14.63
2023-05-25T02:24:55.354Z,14.67
2023-05-25T02:27:23.255Z,14.75
2023-05-25T02:29:50.885Z,14.75
2023-05-25T02:32:18.498Z,14.78
2023-05-25T02:34:47.204Z,14.80
2023-05-25T02:37:14.666Z,14.82
2023-05-25T02:39:42.690Z,14.85
2023-05-25T02:42:10.353Z,14.86
2023-05-25T02:44:37.919Z,14.89
2023-05-25T02:47:06.934Z,14.88
2023-05-25T02:49:34.967Z,14.89
2023-05-25T02:52:02.630Z,14.90
2023-05-25T02:54:30.116Z,14.90
2023-05-25T02:56:58.597Z,14.97
2023-05-25T02:59:26.250Z,15.08
2023-05-25T03:01:53.886Z,15.18
2023-05-25T03:04:22.263Z,15.24
2023-05-25T03:06:49.824Z,15.19
2023-05-25T03:09:19.256Z,15.13
2023-05-25T03:11:48.683Z,15.10
2023-05-25T03:14:18.033Z,15.07
2023-05-25T03:16:53.605Z,15.05
2023-05-25T03:19:22.408Z,15.05
2023-05-25T03:21:50.026Z,15.11
2023-05-25T03:24:19.218Z,15.20
2023-05-25T03:26:46.841Z,15.32
2023-05-25T03:29:15.053Z,15.41
2023-05-25T03:31:42.758Z,15.47
2023-05-25T03:34:11.103Z,15.55
2023-05-25T03:36:39.202Z,15.62
2023-05-25T03:39:07.340Z,15.71
2023-05-25T03:41:35.304Z,15.86
2023-05-25T03:44:03.011Z,15.94
2023-05-25T03:46:30.683Z,16.16
2023-05-25T03:48:58.598Z,16.31
2023-05-25T03:51:26.360Z,16.39
2023-05-25T03:53:53.912Z,16.54
2023-05-25T03:56:21.676Z,16.62
2023-05-25T03:58:49.952Z,16.79
2023-05-25T04:01:19.604Z,17.00
2023-05-25T04:03:47.234Z,17.23
2023-05-25T04:06:19.562Z,17.47
2023-05-25T04:08:48.827Z,17.69
2023-05-25T04:11:16.447Z,17.93
2023-05-25T04:13:44.109Z,18.17
2023-05-25T04:16:13.357Z,18.40
2023-05-25T04:18:41.931Z,18.53
2023-05-25T04:21:09.862Z,18.72
2023-05-25T04:23:37.533Z,18.83
2023-05-25T04:26:10.512Z,18.94
2023-05-25T04:28:41.230Z,19.01
2023-05-25T04:31:35.746Z,19.12
2023-05-25T04:34:30.007Z,19.07
2023-05-25T04:37:09.359Z,18.99
2023-05-25T04:39:37.832Z,18.90
2023-05-25T04:42:06.280Z,18.75
2023-05-25T04:44:34.986Z,18.66
2023-05-25T04:47:04.814Z,18.59
2023-05-25T04:49:34.447Z,18.57
2023-05-25T04:52:02.092Z,18.53
2023-05-25T04:54:31.943Z,18.51
2023-05-25T04:57:02.776Z,18.52
2023-05-25T04:59:32.338Z,18.54
2023-05-25T05:02:00.591Z,18.56
2023-05-25T05:04:28.241Z,18.58
2023-05-25T05:06:58.818Z,18.58
2023-05-25T05:09:28.714Z,18.64
2023-05-25T05:11:58.037Z,18.62
2023-05-25T05:14:26.582Z,18.57
2023-05-25T05:16:55.506Z,18.53
2023-05-25T05:19:23.873Z,18.47
2023-05-25T05:21:52.774Z,18.43
2023-05-25T05:24:20.970Z,18.45
2023-05-25T05:29:27.175Z,18.41
2023-05-25T05:31:56.418Z,18.43
2023-05-25T05:34:24.538Z,18.51
2023-05-25T05:36:57.243Z,18.56
2023-05-25T05:39:28.457Z,18.63
2023-05-25T05:41:56.551Z,18.72
2023-05-25T05:44:27.094Z,18.79
2023-05-25T05:47:01.137Z,18.84
2023-05-25T05:49:30.102Z,18.88
2023-05-25T05:51:58.830Z,18.91
2023-05-25T05:54:28.197Z,18.92
2023-05-25T05:57:00.028Z,18.95
2023-05-25T05:59:29.426Z,19.01
2023-05-25T06:01:56.994Z,19.11
2023-05-25T06:04:28.681Z,19.17
2023-05-25T06:06:57.169Z,19.26
2023-05-25T06:09:26.707Z,19.39
2023-05-25T06:11:56.181Z,19.52
2023-05-25T06:14:24.755Z,19.61
2023-05-25T06:16:53.896Z,19.76
2023-05-25T06:19:21.722Z,19.91
2023-05-25T06:21:49.371Z,20.06
2023-05-25T06:24:17.247Z,20.11
2023-05-25T06:26:45.188Z,20.34
2023-05-25T06:29:16.114Z,20.62
2023-05-25T06:31:44.573Z,20.86
2023-05-25T06:34:12.172Z,21.22
2023-05-25T06:36:41.673Z,21.50
2023-05-25T06:39:09.804Z,21.65
2023-05-25T06:41:38.476Z,21.73
2023-05-25T06:44:06.620Z,21.77
2023-05-25T06:46:42.162Z,21.84
2023-05-25T06:49:10.055Z,22.00
2023-05-25T06:51:37.894Z,22.07
2023-05-25T06:54:07.891Z,22.13
2023-05-25T06:56:36.128Z,22.09
2023-05-25T06:59:03.636Z,22.12
2023-05-25T07:01:31.266Z,22.22
2023-05-25T07:03:58.967Z,22.30
2023-05-25T07:06:26.673Z,22.39
2023-05-25T07:08:56.048Z,22.48
2023-05-25T07:11:23.709Z,22.48
2023-05-25T07:13:51.595Z,22.53
2023-05-25T07:16:19.365Z,22.48
2023-05-25T07:18:48.228Z,22.50
2023-05-25T07:21:15.962Z,22.62
2023-05-25T07:23:43.539Z,22.75
2023-05-25T07:26:11.302Z,22.84
2023-05-25T07:28:38.932Z,22.89
2023-05-25T07:31:06.654Z,22.98
2023-05-25T07:33:34.516Z,23.05
2023-05-25T07:36:02.114Z,23.11
2023-05-25T07:38:29.637Z,23.21
2023-05-25T07:40:57.109Z,23.27
2023-05-25T07:43:25.235Z,23.41
2023-05-25T07:45:52.922Z,23.55
2023-05-25T07:48:20.698Z,23.67
2023-05-25T07:50:48.249Z,23.78
2023-05-25T07:53:16.134Z,23.88
2023-05-25T07:55:44.214Z,23.95
2023-05-25T07:58:12.434Z,23.97
2023-05-25T08:00:40.809Z,24.02
2023-05-25T08:03:08.982Z,24.12
2023-05-25T08:05:36.931Z,24.24
2023-05-25T08:08:04.735Z,24.37
2023-05-25T08:10:32.581Z,24.39
2023-05-25T08:13:00.211Z,24.48
2023-05-25T08:15:30.854Z,24.59
2023-05-25T08:18:01.444Z,24.65
2023-05-25T08:20:34.951Z,24.70
2023-05-25T08:23:06.476Z,24.82
2023-05-25T08:25:34.675Z,24.68
2023-05-25T08:28:03.421Z,24.65
2023-05-25T08:30:31.204Z,24.61
2023-05-25T08:32:58.742Z,24.66
2023-05-25T08:35:26.256Z,24.74
2023-05-25T08:37:53.949Z,24.84
2023-05-25T08:40:24.133Z,24.97
2023-05-25T08:42:51.630Z,24.96
2023-05-25T08:45:33.397Z,24.91
2023-05-25T08:48:02.586Z,25.08
2023-05-25T08:50:30.210Z,25.07
2023-05-25T08:52:57.976Z,25.12
2023-05-25T08:55:25.913Z,25.20
2023-05-25T08:57:56.201Z,25.19
2023-05-25T09:00:35.978Z,25.18
2023-05-25T09:03:09.652Z,25.13
2023-05-25T09:05:39.522Z,25.13
2023-05-25T09:08:08.998Z,25.29
2023-05-25T09:10:37.647Z,25.38
2023-05-25T09:13:20.338Z,25.42
2023-05-25T09:15:50.173Z,25.40
2023-05-25T09:18:17.713Z,25.32
2023-05-25T09:20:47.036Z,25.42
2023-05-25T09:23:15.477Z,25.51
2023-05-25T09:25:43.226Z,25.40
2023-05-25T09:28:25.511Z,25.39
2023-05-25T09:30:54.411Z,25.52
2023-05-25T09:33:22.214Z,25.64
2023-05-25T09:35:49.865Z,25.72
2023-05-25T09:38:17.940Z,25.74
2023-05-25T09:40:46.274Z,25.79
2023-05-25T09:43:21.853Z,25.89
2023-05-25T09:45:53.505Z,25.97
2023-05-25T09:48:22.704Z,26.08
2023-05-25T09:50:53.125Z,26.13
2023-05-25T09:53:20.876Z,26.15
2023-05-25T09:55:53.015Z,26.17
2023-05-25T09:58:27.668Z,26.24
2023-05-25T10:00:56.325Z,26.38
2023-05-25T10:03:24.829Z,26.43
2023-05-25T10:05:52.621Z,26.43
2023-05-25T10:08:20.682Z,26.47
2023-05-25T10:10:50.769Z,26.53
2023-05-25T10:13:23.164Z,26.63
2023-05-25T10:15:53.221Z,26.67
2023-05-25T10:18:25.801Z,26.75
2023-05-25T10:20:57.940Z,26.80
2023-05-25T10:23:26.093Z,26.90
2023-05-25T10:25:55.444Z,26.94
2023-05-25T10:28:27.612Z,26.90
2023-05-25T10:30:58.676Z,26.92
2023-05-25T10:36:09.371Z,27.17
2023-05-25T10:38:39.659Z,27.08
2023-05-25T10:41:09.341Z,26.92
2023-05-25T10:43:40.798Z,26.65
2023-05-25T10:46:08.629Z,26.34
2023-05-25T10:48:40.183Z,25.98
2023-05-25T10:51:10.215Z,25.67
2023-05-25T10:53:39.387Z,25.45
2023-05-25T10:56:08.826Z,25.32
2023-05-25T10:58:36.648Z,25.24
2023-05-25T11:01:07.992Z,25.23
2023-05-25T11:03:48.395Z,25.22
2023-05-25T11:06:17.568Z,25.23
2023-05-25T11:09:04.210Z,25.25
2023-05-25T11:12:02.268Z,25.39
2023-05-25T11:14:31.222Z,25.68
2023-05-25T11:17:06.602Z,25.96
2023-05-25T11:19:54.311Z,26.22
2023-05-25T11:22:38.153Z,26.44
2023-05-25T11:25:44.960Z,26.70
2023-05-25T11:28:13.159Z,27.19
2023-05-25T11:30:42.267Z,27.38
2023-05-25T11:33:11.739Z,27.39
2023-05-25T11:35:39.259Z,27.39
2023-05-25T11:38:07.512Z,27.34
2023-05-25T11:40:36.921Z,27.38
2023-05-25T11:43:06.773Z,27.41
2023-05-25T11:45:34.641Z,27.43
2023-05-25T11:48:04.075Z,27.57
2023-05-25T11:50:32.289Z,27.66
2023-05-25T11:52:59.903Z,27.80
2023-05-25T11:55:27.579Z,27.95
2023-05-25T11:57:56.669Z,28.06
2023-05-25T12:00:25.312Z,28.08
2023-05-25T12:02:53.036Z,28.11
2023-05-25T12:05:21.199Z,28.18
2023-05-25T12:07:48.934Z,27.99
2023-05-25T12:10:19.306Z,27.84
2023-05-25T12:12:48.211Z,27.73
2023-05-25T12:15:19.168Z,27.76
2023-05-25T12:17:48.259Z,27.78
2023-05-25T12:20:18.359Z,27.71
2023-05-25T12:22:46.979Z,27.58
2023-05-25T12:25:16.077Z,27.61
2023-05-25T12:27:44.239Z,27.66
2023-05-25T12:30:12.007Z,27.63
2023-05-25T12:33:05.208Z,27.64
2023-05-25T12:35:49.565Z,27.82
2023-05-25T12:38:20.828Z,27.91
2023-05-25T12:41:08.906Z,27.98
2023-05-25T12:43:38.896Z,28.02
2023-05-25T12:46:06.615Z,27.85
2023-05-25T12:48:35.819Z,27.65
2023-05-25T12:51:04.184Z,27.60
2023-05-25T12:53:31.724Z,27.53
2023-05-25T12:56:06.975Z,27.51
2023-05-25T12:58:39.041Z,27.53
2023-05-25T13:01:09.033Z,27.55
2023-05-25T13:03:36.808Z,27.52
2023-05-25T13:06:04.873Z,27.47
2023-05-25T13:08:33.823Z,27.44
2023-05-25T13:11:03.890Z,27.46
2023-05-25T13:13:31.784Z,27.51
2023-05-25T13:15:59.464Z,27.49
2023-05-25T13:18:27.821Z,27.47
2023-05-25T13:20:57.302Z,27.47
2023-05-25T13:23:25.198Z,27.50
2023-05-25T13:25:52.733Z,27.64
2023-05-25T13:28:20.218Z,27.78
2023-05-25T13:30:47.771Z,27.79
2023-05-25T13:33:15.460Z,27.87
2023-05-25T13:35:58.173Z,27.88
2023-05-25T13:38:26.170Z,27.95
2023-05-25T13:40:54.669Z,27.96
2023-05-25T13:43:25.692Z,28.00
2023-05-25T13:45:56.214Z,28.08
2023-05-25T13:48:26.131Z,28.17
2023-05-25T13:50:55.966Z,28.18
2023-05-25T13:53:28.632Z,28.15
2023-05-25T13:55:58.670Z,28.08
2023-05-25T13:58:28.767Z,28.16
2023-05-25T14:00:56.985Z,28.18
2023-05-25T14:03:25.537Z,27.86
2023-05-25T14:05:54.326Z,27.82
2023-05-25T14:08:21.924Z,27.87
2023-05-25T14:10:51.871Z,27.93
2023-05-25T14:13:20.494Z,28.22
2023-05-25T14:15:48.441Z,28.28
2023-05-25T14:18:16.672Z,28.30
2023-05-25T14:20:44.717Z,28.34
2023-05-25T14:23:15.199Z,28.40
2023-05-25T14:25:44.596Z,28.40
2023-05-25T14:28:12.480Z,28.43
2023-05-25T14:30:40.269Z,28.47
2023-05-25T14:37:32.087Z,28.62
2023-05-25T14:40:01.071Z,28.54
2023-05-25T14:42:30.410Z,28.33
2023-05-25T14:49:27.470Z,28.11
2023-05-25T14:51:55.122Z,28.09
2023-05-25T14:54:22.680Z,27.99
2023-05-25T14:56:50.344Z,27.97
2023-05-25T14:59:18.003Z,27.91
2023-05-25T15:01:47.557Z,27.81
2023-05-25T15:04:15.240Z,27.79
2023-05-25T15:06:42.870Z,27.88
2023-05-25T15:09:10.420Z,27.88
2023-05-25T15:11:38.056Z,27.83
2023-05-25T15:14:06.013Z,27.74
2023-05-25T15:16:42.617Z,27.58
2023-05-25T15:19:13.246Z,27.40
2023-05-25T15:21:43.148Z,27.24
2023-05-25T15:24:16.758Z,27.08
2023-05-25T15:26:46.674Z,26.86
2023-05-25T15:29:15.160Z,26.78
2023-05-25T15:31:43.557Z,26.74
2023-05-25T15:34:12.376Z,26.72
2023-05-25T15:36:39.894Z,26.69
2023-05-25T15:39:09.141Z,26.61
2023-05-25T15:41:36.852Z,26.53
2023-05-25T15:44:08.269Z,26.51
2023-05-25T15:46:36.198Z,26.53
2023-05-25T15:49:03.716Z,26.49
2023-05-25T15:51:32.870Z,26.49
2023-05-25T15:54:00.580Z,26.47
2023-05-25T15:56:28.335Z,26.35
2023-05-25T15:58:56.098Z,26.31
2023-05-25T16:01:23.840Z,26.26
2023-05-25T16:03:51.665Z,26.22
2023-05-25T16:06:19.341Z,25.95
2023-05-25T16:08:46.895Z,25.85
2023-05-25T16:11:14.472Z,25.77
2023-05-25T16:13:42.076Z,25.74
2023-05-25T16:16:10.317Z,25.70
2023-05-25T16:18:38.121Z,25.62
2023-05-25T16:21:07.808Z,25.53
2023-05-25T16:23:36.349Z,25.40
2023-05-25T16:26:06.312Z,25.38
2023-05-25T16:28:35.307Z,25.38
2023-05-25T16:31:04.054Z,25.44
2023-05-25T16:33:32.480Z,25.46
2023-05-25T16:36:00.754Z,25.44
2023-05-25T16:38:28.510Z,25.36
2023-05-25T16:40:56.578Z,25.31
2023-05-25T16:43:25.328Z,25.26
2023-05-25T16:45:52.874Z,25.24
2023-05-25T16:48:23.042Z,25.19
2023-05-25T16:50:51.015Z,25.14
2023-05-25T16:53:18.746Z,25.08
2023-05-25T16:55:47.100Z,24.94
2023-05-25T16:58:15.054Z,24.87
2023-05-25T17:00:44.585Z,24.82
2023-05-25T17:03:12.331Z,24.80
2023-05-25T17:05:40.224Z,24.80
2023-05-25T17:08:07.899Z,24.80
2023-05-25T17:10:35.638Z,24.75
2023-05-25T17:13:03.338Z,24.84
2023-05-25T17:15:32.643Z,24.84
2023-05-25T17:18:10.367Z,24.84
2023-05-25T17:20:40.277Z,24.69
2023-05-25T17:23:14.930Z,24.61
2023-05-25T17:25:46.434Z,24.62
2023-05-25T17:28:14.289Z,24.58
2023-05-25T17:30:42.110Z,24.54
2023-05-25T17:33:09.830Z,24.46
2023-05-25T17:35:37.444Z,24.38
2023-05-25T17:38:05.024Z,24.34
2023-05-25T17:40:32.598Z,24.29
2023-05-25T17:43:00.131Z,24.30
2023-05-25T17:45:27.854Z,24.24
2023-05-25T17:47:56.433Z,24.19
2023-05-25T17:50:34.110Z,24.16
2023-05-25T17:53:04.291Z,24.19
2023-05-25T17:55:31.853Z,24.16
2023-05-25T17:57:59.437Z,24.13
2023-05-25T18:00:27.564Z,24.14
2023-05-25T18:02:55.663Z,24.12
2023-05-25T18:05:24.546Z,24.08
2023-05-25T18:07:52.406Z,24.03
2023-05-25T18:10:20.070Z,23.94
2023-05-25T18:12:49.416Z,23.90
2023-05-25T18:15:17.245Z,23.85
2023-05-25T18:17:45.071Z,23.70
2023-05-25T18:20:13.227Z,23.62
2023-05-25T18:22:41.697Z,23.55
2023-05-25T18:25:09.763Z,23.52
2023-05-25T18:27:37.345Z,23.47
2023-05-25T18:30:05.379Z,23.43
2023-05-25T18:32:33.404Z,23.42
2023-05-25T18:35:00.982Z,23.47
2023-05-25T18:37:29.960Z,23.05
2023-05-25T18:39:57.465Z,22.89
2023-05-25T18:42:26.811Z,22.85
2023-05-25T18:44:55.824Z,22.92
2023-05-25T18:47:25.364Z,22.95
2023-05-25T18:49:53.190Z,22.97
2023-05-25T18:52:20.856Z,23.00
2023-05-25T18:54:49.355Z,22.98
2023-05-25T18:57:17.237Z,22.99
2023-05-25T18:59:44.762Z,22.97
2023-05-25T19:02:12.306Z,22.96
2023-05-25T19:04:39.974Z,22.98
2023-05-25T19:07:07.479Z,22.94
2023-05-25T19:09:35.105Z,22.87
2023-05-25T19:12:04.915Z,22.82
2023-05-25T19:14:32.814Z,22.83
2023-05-25T19:17:00.679Z,22.83
2023-05-25T19:19:28.403Z,22.84
2023-05-25T19:21:56.068Z,22.89
2023-05-25T19:24:23.725Z,22.89
2023-05-25T19:26:51.390Z,22.75
2023-05-25T19:29:19.764Z,22.67
2023-05-25T19:31:47.498Z,22.62
2023-05-25T19:34:15.189Z,22.57
2023-05-25T19:36:42.850Z,22.52
2023-05-25T19:39:10.819Z,22.43
2023-05-25T19:41:38.738Z,22.35
2023-05-25T19:44:06.446Z,22.25
2023-05-25T19:46:34.212Z,22.17
2023-05-25T19:49:01.878Z,22.03
2023-05-25T19:51:29.561Z,21.97
2023-05-25T19:53:57.299Z,21.93
2023-05-25T19:56:25.127Z,21.89
2023-05-25T19:58:52.825Z,21.82
2023-05-25T20:01:20.467Z,21.76
2023-05-25T20:03:48.361Z,21.69
2023-05-25T20:06:16.126Z,21.64
2023-05-25T20:08:46.255Z,21.65
2023-05-25T20:11:13.894Z,21.68
2023-05-25T20:13:41.761Z,21.63
2023-05-25T20:16:10.679Z,21.56
2023-05-25T20:18:38.426Z,21.45
2023-05-25T20:21:06.073Z,21.31
2023-05-25T20:23:33.735Z,21.27
2023-05-25T20:26:01.397Z,21.18
2023-05-25T20:28:29.055Z,21.09
2023-05-25T20:30:56.725Z,21.01
2023-05-25T20:33:24.791Z,20.96
2023-05-25T20:35:52.551Z,20.88
2023-05-25T20:38:20.110Z,20.83
2023-05-25T20:40:47.770Z,20.77
2023-05-25T20:43:15.435Z,20.73
2023-05-25T20:45:43.357Z,20.65
2023-05-25T20:48:11.272Z,20.60
2023-05-25T20:50:38.836Z,20.60
2023-05-25T20:53:06.495Z,20.59
2023-05-25T20:55:34.158Z,20.38
2023-05-25T20:58:02.019Z,20.39
2023-05-25T21:00:29.685Z,20.38
2023-05-25T21:02:57.468Z,20.41
2023-05-25T21:05:25.243Z,20.42
2023-05-25T21:07:52.778Z,20.36
2023-05-25T21:10:20.532Z,20.30
2023-05-25T21:12:48.095Z,20.25
2023-05-25T21:15:15.768Z,20.12
2023-05-25T21:17:43.287Z,20.03
2023-05-25T21:20:11.151Z,19.93
2023-05-25T21:22:38.950Z,19.94
2023-05-25T21:25:07.315Z,19.98
2023-05-25T21:27:34.976Z,19.94
2023-05-25T21:30:06.225Z,19.91
2023-05-25T21:32:34.026Z,19.91
2023-05-25T21:35:01.753Z,19.95
2023-05-25T21:37:29.918Z,19.94
2023-05-25T21:39:57.577Z,19.89
2023-05-25T21:42:26.264Z,19.74
2023-05-25T21:44:53.927Z,19.67
2023-05-25T21:47:21.636Z,19.67
2023-05-25T21:49:49.363Z,19.74
2023-05-25T21:52:19.881Z,19.86
2023-05-25T21:54:47.555Z,19.91
2023-05-25T21:57:15.106Z,19.87
2023-05-25T21:59:42.710Z,19.62
2023-05-25T22:02:10.369Z,19.49
2023-05-25T22:04:37.979Z,19.54
2023-05-25T22:07:05.639Z,19.57
2023-05-25T22:09:33.308Z,19.60
2023-05-25T22:12:02.336Z,19.45
2023-05-25T22:14:29.963Z,19.31
2023-05-25T22:16:57.680Z,19.26
2023-05-25T22:19:25.411Z,19.24
2023-05-25T22:21:53.753Z,19.21
2023-05-25T22:24:21.432Z,19.11
2023-05-25T22:26:49.077Z,19.05
2023-05-25T22:29:16.636Z,19.04
2023-05-25T22:31:44.199Z,19.05
2023-05-25T22:34:11.864Z,19.07
2023-05-25T22:36:39.519Z,19.11
2023-05-25T22:39:07.074Z,19.17
2023-05-25T22:41:34.755Z,19.10
2023-05-25T22:44:02.397Z,19.02
2023-05-25T22:46:29.889Z,18.83
2023-05-25T22:48:57.617Z,18.79
2023-05-25T22:51:25.288Z,18.76
2023-05-25T22:53:53.051Z,18.79
2023-05-25T22:56:21.325Z,18.60
2023-05-25T22:58:48.974Z,18.57
2023-05-25T23:01:16.670Z,18.13
2023-05-25T23:03:44.385Z,18.18
2023-05-25T23:06:12.165Z,18.25
2023-05-25T23:08:39.845Z,18.23
2023-05-25T23:11:07.380Z,18.22
2023-05-25T23:13:36.064Z,18.19
2023-05-25T23:16:04.050Z,18.15
2023-05-25T23:18:31.715Z,18.01
2023-05-25T23:20:59.263Z,17.94
2023-05-25T23:23:26.742Z,17.93
2023-05-25T23:25:54.272Z,17.88
2023-05-25T23:28:21.990Z,17.75
2023-05-25T23:30:49.694Z,17.75
2023-05-25T23:33:18.707Z,17.73
2023-05-25T23:35:46.930Z,17.68
2023-05-25T23:38:15.242Z,17.57
2023-05-25T23:40:42.806Z,17.58
2023-05-25T23:43:10.462Z,17.42
2023-05-25T23:45:38.142Z,17.52
2023-05-25T23:48:06.138Z,17.59
2023-05-25T23:50:35.179Z,17.48
2023-05-25T23:53:03.093Z,17.48
2023-05-25T23:55:30.913Z,17.50
2023-05-25T23:57:58.477Z,17.54
